sensor_id;sensor_type;location;lat;lon;timestamp;pressure;altitude;pressure_sealevel;temperature;humidity
48624;BME280;34422;45.802;16.114;2023-02-05T00:01:27;102002.63;;;0.61;57.83
48624;BME280;34422;45.802;16.114;2023-02-05T00:03:54;101996.03;;;0.54;58.66
48624;BME280;34422;45.802;16.114;2023-02-05T00:06:21;102007.75;;;0.39;60.16
48624;BME280;34422;45.802;16.114;2023-02-05T00:08:47;102007.09;;;0.35;61.55
48624;BME280;34422;45.802;16.114;2023-02-05T00:11:14;102002.41;;;0.26;62.93
48624;BME280;34422;45.802;16.114;2023-02-05T00:13:42;102003.75;;;0.19;64.54
48624;BME280;34422;45.802;16.114;2023-02-05T00:16:12;102003.34;;;0.13;66.83
48624;BME280;34422;45.802;16.114;2023-02-05T00:18:39;101997.88;;;0.14;69.53
48624;BME280;34422;45.802;16.114;2023-02-05T00:21:06;101992.78;;;0.11;73.00
48624;BME280;34422;45.802;16.114;2023-02-05T00:23:34;101990.13;;;0.11;75.88
48624;BME280;34422;45.802;16.114;2023-02-05T00:26:02;101986.50;;;0.12;76.33
48624;BME280;34422;45.802;16.114;2023-02-05T00:28:33;101992.03;;;0.09;79.59
48624;BME280;34422;45.802;16.114;2023-02-05T00:31:06;101995.66;;;0.08;81.78
48624;BME280;34422;45.802;16.114;2023-02-05T00:33:33;101995.75;;;0.07;84.05
48624;BME280;34422;45.802;16.114;2023-02-05T00:36:00;101995.19;;;0.02;85.83
48624;BME280;34422;45.802;16.114;2023-02-05T00:38:27;101997.00;;;0.01;86.46
48624;BME280;34422;45.802;16.114;2023-02-05T00:40:53;101998.94;;;-0.01;87.52
48624;BME280;34422;45.802;16.114;2023-02-05T00:43:20;102000.84;;;-0.03;88.41
48624;BME280;34422;45.802;16.114;2023-02-05T00:45:47;101997.63;;;-0.08;88.99
48624;BME280;34422;45.802;16.114;2023-02-05T00:48:14;101999.53;;;-0.10;89.50
48624;BME280;34422;45.802;16.114;2023-02-05T00:50:41;101999.72;;;-0.13;90.81
48624;BME280;34422;45.802;16.114;2023-02-05T00:53:08;102001.66;;;-0.15;91.46
48624;BME280;34422;45.802;16.114;2023-02-05T00:55:35;102005.59;;;-0.08;91.93
48624;BME280;34422;45.802;16.114;2023-02-05T00:58:01;101996.03;;;0.02;91.65
48624;BME280;34422;45.802;16.114;2023-02-05T01:00:28;102007.25;;;0.07;91.22
48624;BME280;34422;45.802;16.114;2023-02-05T01:02:55;102006.00;;;0.13;91.09
48624;BME280;34422;45.802;16.114;2023-02-05T01:05:22;102012.16;;;0.13;91.02
48624;BME280;34422;45.802;16.114;2023-02-05T01:07:49;102012.56;;;0.07;91.49
48624;BME280;34422;45.802;16.114;2023-02-05T01:10:16;102012.56;;;0.07;90.95
48624;BME280;34422;45.802;16.114;2023-02-05T01:12:43;102017.34;;;0.02;91.60
48624;BME280;34422;45.802;16.114;2023-02-05T01:15:11;102017.00;;;-0.06;92.90
48624;BME280;34422;45.802;16.114;2023-02-05T01:17:38;102013.59;;;-0.08;94.41
48624;BME280;34422;45.802;16.114;2023-02-05T01:20:06;102002.50;;;-0.15;94.68
48624;BME280;34422;45.802;16.114;2023-02-05T01:22:34;102009.22;;;-0.09;94.87
48624;BME280;34422;45.802;16.114;2023-02-05T01:25:01;102001.44;;;-0.12;94.80
48624;BME280;34422;45.802;16.114;2023-02-05T01:27:27;102012.50;;;-0.18;95.56
48624;BME280;34422;45.802;16.114;2023-02-05T01:29:54;102018.09;;;-0.23;96.81
48624;BME280;34422;45.802;16.114;2023-02-05T01:32:21;102002.50;;;-0.15;96.50
48624;BME280;34422;45.802;16.114;2023-02-05T01:34:48;102006.22;;;-0.17;96.83
48624;BME280;34422;45.802;16.114;2023-02-05T01:37:14;102018.19;;;-0.24;97.69
48624;BME280;34422;45.802;16.114;2023-02-05T01:39:41;102004.13;;;-0.26;98.35
48624;BME280;34422;45.802;16.114;2023-02-05T01:42:21;102005.84;;;-0.25;99.37
48624;BME280;34422;45.802;16.114;2023-02-05T01:47:52;102010.78;;;-0.19;99.76
48624;BME280;34422;45.802;16.114;2023-02-05T01:53:01;102023.03;;;-0.17;99.84
48624;BME280;34422;45.802;16.114;2023-02-05T01:55:30;102016.72;;;-0.28;100.00
48624;BME280;34422;45.802;16.114;2023-02-05T01:57:58;102016.50;;;-0.25;100.00
48624;BME280;34422;45.802;16.114;2023-02-05T02:00:26;102027.78;;;-0.22;100.00
48624;BME280;34422;45.802;16.114;2023-02-05T02:02:53;102023.31;;;-0.21;100.00
48624;BME280;34422;45.802;16.114;2023-02-05T02:05:20;102017.06;;;-0.20;100.00
48624;BME280;34422;45.802;16.114;2023-02-05T02:07:46;102018.75;;;-0.19;100.00
48624;BME280;34422;45.802;16.114;2023-02-05T02:10:14;102032.81;;;-0.17;100.00
48624;BME280;34422;45.802;16.114;2023-02-05T02:12:45;102023.66;;;-0.13;100.00
48624;BME280;34422;45.802;16.114;2023-02-05T02:15:19;102019.31;;;-0.14;100.00
48624;BME280;34422;45.802;16.114;2023-02-05T02:17:49;102010.59;;;-0.16;100.00
48624;BME280;34422;45.802;16.114;2023-02-05T02:20:21;102002.03;;;-0.21;100.00
48624;BME280;34422;45.802;16.114;2023-02-05T02:28:27;101998.09;;;-0.28;100.00
48624;BME280;34422;45.802;16.114;2023-02-05T02:31:03;101999.47;;;-0.23;100.00
48624;BME280;34422;45.802;16.114;2023-02-05T02:33:52;101991.41;;;-0.21;100.00
48624;BME280;34422;45.802;16.114;2023-02-05T02:39:00;101993.50;;;-0.26;100.00
48624;BME280;34422;45.802;16.114;2023-02-05T02:41:42;101996.47;;;-0.31;100.00
48624;BME280;34422;45.802;16.114;2023-02-05T02:44:36;102007.78;;;-0.27;100.00
48624;BME280;34422;45.802;16.114;2023-02-05T02:47:11;102007.78;;;-0.27;100.00
48624;BME280;34422;45.802;16.114;2023-02-05T02:49:43;102000.94;;;-0.31;100.00
48624;BME280;34422;45.802;16.114;2023-02-05T02:52:14;101995.81;;;-0.34;100.00
48624;BME280;34422;45.802;16.114;2023-02-05T02:54:46;102004.13;;;-0.26;100.00
48624;BME280;34422;45.802;16.114;2023-02-05T02:57:16;101997.56;;;-0.21;100.00
48624;BME280;34422;45.802;16.114;2023-02-05T02:59:46;102005.47;;;-0.19;100.00
48624;BME280;34422;45.802;16.114;2023-02-05T03:02:15;102000.13;;;-0.19;100.00
48624;BME280;34422;45.802;16.114;2023-02-05T03:04:55;102002.38;;;-0.13;97.14
48624;BME280;34422;45.802;16.114;2023-02-05T03:07:29;102001.38;;;0.02;92.52
48624;BME280;34422;45.802;16.114;2023-02-05T03:10:03;102000.22;;;0.06;91.86
48624;BME280;34422;45.802;16.114;2023-02-05T03:12:33;102000.00;;;0.09;87.15
48624;BME280;34422;45.802;16.114;2023-02-05T03:15:00;102008.53;;;0.14;85.87
48624;BME280;34422;45.802;16.114;2023-02-05T03:17:27;102004.72;;;0.18;84.33
48624;BME280;34422;45.802;16.114;2023-02-05T03:20:07;102016.88;;;0.22;83.18
48624;BME280;34422;45.802;16.114;2023-02-05T03:22:35;102022.84;;;0.26;81.43
48624;BME280;34422;45.802;16.114;2023-02-05T03:25:03;102018.38;;;0.26;79.57
48624;BME280;34422;45.802;16.114;2023-02-05T03:27:30;102017.31;;;0.42;76.41
48624;BME280;34422;45.802;16.114;2023-02-05T03:29:58;102026.16;;;0.42;76.33
48624;BME280;34422;45.802;16.114;2023-02-05T03:35:23;102018.19;;;0.55;73.27
48624;BME280;34422;45.802;16.114;2023-02-05T03:43:54;102019.88;;;0.56;70.47
48624;BME280;34422;45.802;16.114;2023-02-05T03:46:27;102018.81;;;0.58;68.55
48624;BME280;34422;45.802;16.114;2023-02-05T03:49:09;102023.50;;;0.55;66.69
48624;BME280;34422;45.802;16.114;2023-02-05T03:59:38;102025.44;;;0.65;64.64
48624;BME280;34422;45.802;16.114;2023-02-05T04:02:06;102033.34;;;0.67;63.78
48624;BME280;34422;45.802;16.114;2023-02-05T04:04:33;102033.09;;;0.57;62.34
48624;BME280;34422;45.802;16.114;2023-02-05T04:07:01;102030.69;;;0.67;62.10
48624;BME280;34422;45.802;16.114;2023-02-05T04:09:28;102025.88;;;0.72;61.77
48624;BME280;34422;45.802;16.114;2023-02-05T04:11:55;102030.69;;;0.67;61.59
48624;BME280;34422;45.802;16.114;2023-02-05T04:14:21;102021.94;;;0.65;61.37
48624;BME280;34422;45.802;16.114;2023-02-05T04:16:48;102028.72;;;0.69;61.75
48624;BME280;34422;45.802;16.114;2023-02-05T04:19:15;102028.88;;;0.67;61.77
48624;BME280;34422;45.802;16.114;2023-02-05T04:21:41;102028.63;;;0.70;62.02
48624;BME280;34422;45.802;16.114;2023-02-05T04:24:08;102024.41;;;0.68;61.85
48624;BME280;34422;45.802;16.114;2023-02-05T04:26:35;102030.44;;;0.70;61.90
48624;BME280;34422;45.802;16.114;2023-02-05T04:29:02;102022.78;;;0.65;61.93
48624;BME280;34422;45.802;16.114;2023-02-05T04:31:29;102039.19;;;0.72;62.00
48624;BME280;34422;45.802;16.114;2023-02-05T04:33:55;102031.53;;;0.67;62.35
48624;BME280;34422;45.802;16.114;2023-02-05T04:36:22;102037.16;;;0.63;62.39
48624;BME280;34422;45.802;16.114;2023-02-05T04:38:49;102031.63;;;0.66;61.94
48624;BME280;34422;45.802;16.114;2023-02-05T04:41:16;102024.59;;;0.65;61.97
48624;BME280;34422;45.802;16.114;2023-02-05T04:43:42;102031.09;;;0.61;61.38
48624;BME280;34422;45.802;16.114;2023-02-05T04:46:10;102034.91;;;0.69;61.13
48624;BME280;34422;45.802;16.114;2023-02-05T04:48:37;102038.78;;;0.65;60.22
48624;BME280;34422;45.802;16.114;2023-02-05T04:51:13;102043.75;;;0.70;59.96
48624;BME280;34422;45.802;16.114;2023-02-05T04:53:40;102033.00;;;0.71;60.13
48624;BME280;34422;45.802;16.114;2023-02-05T04:56:10;102029.94;;;0.65;59.14
48624;BME280;34422;45.802;16.114;2023-02-05T04:58:38;102036.84;;;0.67;58.85
48624;BME280;34422;45.802;16.114;2023-02-05T05:01:11;102045.91;;;0.65;57.86
48624;BME280;34422;45.802;16.114;2023-02-05T05:03:39;102043.75;;;0.70;58.32
48624;BME280;34422;45.802;16.114;2023-02-05T05:06:05;102035.78;;;0.70;58.80
48624;BME280;34422;45.802;16.114;2023-02-05T05:08:33;102042.28;;;0.66;58.19
48624;BME280;34422;45.802;16.114;2023-02-05T05:11:07;102045.47;;;0.71;58.64
48624;BME280;34422;45.802;16.114;2023-02-05T05:13:35;102040.25;;;0.69;57.91
48624;BME280;34422;45.802;16.114;2023-02-05T05:16:02;102035.47;;;0.62;57.31
48624;BME280;34422;45.802;16.114;2023-02-05T05:18:30;102037.38;;;0.60;58.32
48624;BME280;34422;45.802;16.114;2023-02-05T05:20:57;102041.19;;;0.56;58.13
48624;BME280;34422;45.802;16.114;2023-02-05T05:23:24;102033.34;;;0.54;57.98
48624;BME280;34422;45.802;16.114;2023-02-05T05:25:51;102029.91;;;0.52;57.15
48624;BME280;34422;45.802;16.114;2023-02-05T05:28:18;102028.81;;;0.55;58.02
48624;BME280;34422;45.802;16.114;2023-02-05T05:30:46;102037.16;;;0.50;57.75
48624;BME280;34422;45.802;16.114;2023-02-05T05:33:13;102035.53;;;0.48;58.57
48624;BME280;34422;45.802;16.114;2023-02-05T05:35:40;102040.97;;;0.46;58.34
48624;BME280;34422;45.802;16.114;2023-02-05T05:38:07;102036.69;;;0.44;58.28
48624;BME280;34422;45.802;16.114;2023-02-05T05:40:33;102044.16;;;0.39;58.59
48624;BME280;34422;45.802;16.114;2023-02-05T05:43:20;102038.28;;;0.33;59.27
48624;BME280;34422;45.802;16.114;2023-02-05T05:46:05;102032.22;;;0.31;59.46
48624;BME280;34422;45.802;16.114;2023-02-05T05:48:33;102029.13;;;0.25;59.46
48624;BME280;34422;45.802;16.114;2023-02-05T05:51:00;102027.50;;;0.22;59.87
48624;BME280;34422;45.802;16.114;2023-02-05T05:53:27;102032.38;;;0.16;59.96
48624;BME280;34422;45.802;16.114;2023-02-05T05:55:53;102037.81;;;0.14;60.50
48624;BME280;34422;45.802;16.114;2023-02-05T05:58:20;102038.31;;;0.07;60.79
48624;BME280;34422;45.802;16.114;2023-02-05T06:00:47;102046.59;;;0.02;61.51
48624;BME280;34422;45.802;16.114;2023-02-05T06:03:14;102048.75;;;-0.03;61.92
48624;BME280;34422;45.802;16.114;2023-02-05T06:05:41;102055.09;;;-0.06;62.10
48624;BME280;34422;45.802;16.114;2023-02-05T06:08:07;102050.84;;;-0.08;62.28
48624;BME280;34422;45.802;16.114;2023-02-05T06:10:34;102056.34;;;-0.11;62.26
48624;BME280;34422;45.802;16.114;2023-02-05T06:13:01;102060.19;;;-0.15;62.94
48624;BME280;34422;45.802;16.114;2023-02-05T06:15:28;102068.06;;;-0.14;62.18
48624;BME280;34422;45.802;16.114;2023-02-05T06:17:55;102070.59;;;-0.12;61.60
48624;BME280;34422;45.802;16.114;2023-02-05T06:20:22;102079.53;;;-0.13;62.28
48624;BME280;34422;45.802;16.114;2023-02-05T06:22:49;102084.84;;;-0.13;62.64
48624;BME280;34422;45.802;16.114;2023-02-05T06:25:15;102086.13;;;-0.19;62.77
48624;BME280;34422;45.802;16.114;2023-02-05T06:27:42;102076.53;;;-0.21;63.14
48624;BME280;34422;45.802;16.114;2023-02-05T06:30:09;102097.06;;;-0.23;62.66
48624;BME280;34422;45.802;16.114;2023-02-05T06:32:36;102088.69;;;-0.17;62.95
48624;BME280;34422;45.802;16.114;2023-02-05T06:35:03;102088.88;;;-0.20;62.98
48624;BME280;34422;45.802;16.114;2023-02-05T06:37:30;102103.03;;;-0.20;63.58
48624;BME280;34422;45.802;16.114;2023-02-05T06:39:58;102110.34;;;-0.23;63.39
48624;BME280;34422;45.802;16.114;2023-02-05T06:42:24;102118.91;;;-0.18;62.96
48624;BME280;34422;45.802;16.114;2023-02-05T06:44:51;102124.22;;;-0.18;63.04
48624;BME280;34422;45.802;16.114;2023-02-05T06:47:18;102122.53;;;-0.19;63.29
48624;BME280;34422;45.802;16.114;2023-02-05T06:49:45;102121.47;;;-0.17;63.68
48624;BME280;34422;45.802;16.114;2023-02-05T06:52:11;102117.56;;;-0.25;63.77
48624;BME280;34422;45.802;16.114;2023-02-05T06:54:38;102120.81;;;-0.20;63.95
48624;BME280;34422;45.802;16.114;2023-02-05T06:57:05;102128.03;;;-0.22;64.33
48624;BME280;34422;45.802;16.114;2023-02-05T06:59:32;102130.25;;;-0.29;64.59
48624;BME280;34422;45.802;16.114;2023-02-05T07:01:58;102140.56;;;-0.24;64.42
48624;BME280;34422;45.802;16.114;2023-02-05T07:04:25;102137.81;;;-0.23;63.80
48624;BME280;34422;45.802;16.114;2023-02-05T07:06:56;102142.09;;;-0.20;63.39
48624;BME280;34422;45.802;16.114;2023-02-05T07:09:23;102146.38;;;-0.18;63.35
48624;BME280;34422;45.802;16.114;2023-02-05T07:11:51;102145.69;;;-0.21;63.79
48624;BME280;34422;45.802;16.114;2023-02-05T07:14:17;102148.28;;;-0.20;63.29
48624;BME280;34422;45.802;16.114;2023-02-05T07:16:45;102159.38;;;-0.13;62.59
48624;BME280;34422;45.802;16.114;2023-02-05T07:19:11;102160.50;;;-0.03;63.08
48624;BME280;34422;45.802;16.114;2023-02-05T07:21:39;102156.03;;;-0.03;61.68
48624;BME280;34422;45.802;16.114;2023-02-05T07:24:06;102175.97;;;0.05;61.45
48624;BME280;34422;45.802;16.114;2023-02-05T07:26:33;102168.47;;;0.11;61.08
48624;BME280;34422;45.802;16.114;2023-02-05T07:29:01;102167.00;;;0.20;60.50
48624;BME280;34422;45.802;16.114;2023-02-05T07:31:28;102178.69;;;0.17;59.88
48624;BME280;34422;45.802;16.114;2023-02-05T07:33:55;102168.38;;;0.40;60.00
48624;BME280;34422;45.802;16.114;2023-02-05T07:36:21;102175.22;;;0.56;58.14
48624;BME280;34422;45.802;16.114;2023-02-05T07:38:48;102166.81;;;0.89;56.96
48624;BME280;34422;45.802;16.114;2023-02-05T07:41:15;102165.56;;;1.08;55.78
48624;BME280;34422;45.802;16.114;2023-02-05T07:43:43;102169.00;;;1.35;55.47
48624;BME280;34422;45.802;16.114;2023-02-05T07:46:13;102173.66;;;1.19;53.01
48624;BME280;34422;45.802;16.114;2023-02-05T07:48:40;102164.28;;;1.26;52.18
48624;BME280;34422;45.802;16.114;2023-02-05T07:51:07;102163.22;;;1.41;52.01
48624;BME280;34422;45.802;16.114;2023-02-05T07:53:34;102165.97;;;1.65;51.49
48624;BME280;34422;45.802;16.114;2023-02-05T07:56:04;102174.69;;;1.79;50.97
48624;BME280;34422;45.802;16.114;2023-02-05T07:58:31;102181.47;;;2.09;50.18
48624;BME280;34422;45.802;16.114;2023-02-05T08:01:04;102188.88;;;1.80;48.86
48624;BME280;34422;45.802;16.114;2023-02-05T08:03:31;102186.88;;;1.71;49.59
48624;BME280;34422;45.802;16.114;2023-02-05T08:05:58;102183.13;;;1.86;48.82
48624;BME280;34422;45.802;16.114;2023-02-05T08:08:25;102192.59;;;2.03;48.51
48624;BME280;34422;45.802;16.114;2023-02-05T08:11:03;102196.16;;;2.27;47.48
48624;BME280;34422;45.802;16.114;2023-02-05T08:13:31;102195.63;;;2.22;46.83
48624;BME280;34422;45.802;16.114;2023-02-05T08:15:58;102196.91;;;2.29;46.91
48624;BME280;34422;45.802;16.114;2023-02-05T08:18:25;102196.81;;;3.13;45.90
48624;BME280;34422;45.802;16.114;2023-02-05T08:20:52;102197.16;;;3.20;45.65
48624;BME280;34422;45.802;16.114;2023-02-05T08:23:20;102188.50;;;3.16;46.72
48624;BME280;34422;45.802;16.114;2023-02-05T08:25:47;102204.00;;;2.89;44.88
48624;BME280;34422;45.802;16.114;2023-02-05T08:28:14;102197.78;;;3.24;44.61
48624;BME280;34422;45.802;16.114;2023-02-05T08:30:40;102185.78;;;2.94;45.24
48624;BME280;34422;45.802;16.114;2023-02-05T08:33:07;102186.75;;;3.39;44.04
48624;BME280;34422;45.802;16.114;2023-02-05T08:35:35;102186.09;;;3.13;43.85
48624;BME280;34422;45.802;16.114;2023-02-05T08:38:03;102189.13;;;3.09;43.84
48624;BME280;34422;45.802;16.114;2023-02-05T08:40:30;102181.41;;;3.39;43.31
48624;BME280;34422;45.802;16.114;2023-02-05T08:42:57;102166.94;;;3.75;43.31
48624;BME280;34422;45.802;16.114;2023-02-05T08:45:26;102183.75;;;3.55;42.17
48624;BME280;34422;45.802;16.114;2023-02-05T08:47:52;102183.44;;;3.25;42.92
48624;BME280;34422;45.802;16.114;2023-02-05T08:50:20;102179.09;;;3.57;42.63
48624;BME280;34422;45.802;16.114;2023-02-05T08:52:47;102186.44;;;3.66;42.19
48624;BME280;34422;45.802;16.114;2023-02-05T08:55:15;102181.03;;;3.33;42.79
48624;BME280;34422;45.802;16.114;2023-02-05T08:57:44;102189.78;;;3.35;43.10
48624;BME280;34422;45.802;16.114;2023-02-05T09:00:12;102180.56;;;3.50;42.46
48624;BME280;34422;45.802;16.114;2023-02-05T09:02:41;102182.41;;;3.94;42.27
48624;BME280;34422;45.802;16.114;2023-02-05T09:05:08;102174.88;;;4.42;41.42
48624;BME280;34422;45.802;16.114;2023-02-05T09:07:39;102177.16;;;3.59;42.06
48624;BME280;34422;45.802;16.114;2023-02-05T09:10:12;102170.09;;;3.36;42.73
48624;BME280;34422;45.802;16.114;2023-02-05T09:12:39;102177.25;;;2.89;43.22
48624;BME280;34422;45.802;16.114;2023-02-05T09:15:07;102174.47;;;2.91;43.80
48624;BME280;34422;45.802;16.114;2023-02-05T09:17:34;102181.50;;;2.57;44.13
48624;BME280;34422;45.802;16.114;2023-02-05T09:20:02;102181.31;;;2.47;44.80
48624;BME280;34422;45.802;16.114;2023-02-05T09:22:29;102182.28;;;2.22;44.61
48624;BME280;34422;45.802;16.114;2023-02-05T09:24:56;102196.47;;;2.23;44.80
48624;BME280;34422;45.802;16.114;2023-02-05T09:27:22;102185.59;;;2.26;45.23
48624;BME280;34422;45.802;16.114;2023-02-05T09:29:49;102182.50;;;2.19;45.79
48624;BME280;34422;45.802;16.114;2023-02-05T09:32:16;102174.78;;;2.27;45.03
48624;BME280;34422;45.802;16.114;2023-02-05T09:34:43;102173.66;;;2.42;45.25
48624;BME280;34422;45.802;16.114;2023-02-05T09:37:09;102174.63;;;2.41;45.45
48624;BME280;34422;45.802;16.114;2023-02-05T09:39:36;102169.56;;;2.49;45.54
48624;BME280;34422;45.802;16.114;2023-02-05T09:42:25;102176.78;;;2.36;45.12
48624;BME280;34422;45.802;16.114;2023-02-05T09:48:20;102149.25;;;2.47;44.99
48624;BME280;34422;45.802;16.114;2023-02-05T09:50:54;102150.06;;;2.36;45.66
48624;BME280;34422;45.802;16.114;2023-02-05T09:53:21;102144.09;;;2.57;45.49
48624;BME280;34422;45.802;16.114;2023-02-05T09:55:49;102153.31;;;2.53;44.72
48624;BME280;34422;45.802;16.114;2023-02-05T09:58:28;102146.94;;;2.42;44.75
48624;BME280;34422;45.802;16.114;2023-02-05T10:01:03;102146.09;;;2.77;45.01
48624;BME280;34422;45.802;16.114;2023-02-05T10:03:43;102143.88;;;2.60;44.59
48624;BME280;34422;45.802;16.114;2023-02-05T10:06:30;102141.13;;;2.48;44.61
48624;BME280;34422;45.802;16.114;2023-02-05T10:12:00;102136.56;;;2.62;45.24
48624;BME280;34422;45.802;16.114;2023-02-05T10:25:12;102122.22;;;2.87;43.29
48624;BME280;34422;45.802;16.114;2023-02-05T10:30:29;102117.22;;;2.82;43.07
48624;BME280;34422;45.802;16.114;2023-02-05T10:32:59;102117.78;;;2.74;43.01
48624;BME280;34422;45.802;16.114;2023-02-05T10:35:45;102113.72;;;2.93;42.83
48624;BME280;34422;45.802;16.114;2023-02-05T10:38:26;102113.78;;;3.26;43.08
48624;BME280;34422;45.802;16.114;2023-02-05T10:40:57;102106.78;;;3.01;42.88
48624;BME280;34422;45.802;16.114;2023-02-05T10:43:35;102102.44;;;3.11;43.14
48624;BME280;34422;45.802;16.114;2023-02-05T10:46:11;102091.47;;;3.14;42.38
48624;BME280;34422;45.802;16.114;2023-02-05T10:48:42;102089.31;;;3.31;42.49
48624;BME280;34422;45.802;16.114;2023-02-05T10:51:15;102093.44;;;3.46;41.89
48624;BME280;34422;45.802;16.114;2023-02-05T10:53:42;102095.88;;;3.15;42.29
48624;BME280;34422;45.802;16.114;2023-02-05T10:56:15;102093.47;;;3.24;41.67
48624;BME280;34422;45.802;16.114;2023-02-05T10:58:55;102098.31;;;3.18;42.67
48624;BME280;34422;45.802;16.114;2023-02-05T11:01:31;102090.25;;;2.85;42.63
48624;BME280;34422;45.802;16.114;2023-02-05T11:04:14;102089.50;;;2.72;42.36
48624;BME280;34422;45.802;16.114;2023-02-05T11:06:50;102090.47;;;2.82;41.80
48624;BME280;34422;45.802;16.114;2023-02-05T11:11:52;102091.69;;;2.89;41.48
48624;BME280;34422;45.802;16.114;2023-02-05T11:14:42;102078.97;;;3.04;41.30
48624;BME280;34422;45.802;16.114;2023-02-05T11:19:59;102074.97;;;2.98;41.81
48624;BME280;34422;45.802;16.114;2023-02-05T11:22:30;102078.59;;;3.31;42.41
48624;BME280;34422;45.802;16.114;2023-02-05T11:25:30;102080.56;;;3.62;41.13
48624;BME280;34422;45.802;16.114;2023-02-05T11:27:54;102074.97;;;3.43;40.97
48624;BME280;34422;45.802;16.114;2023-02-05T11:30:34;102084.94;;;3.30;40.27
48624;BME280;34422;45.802;16.114;2023-02-05T11:41:17;102076.28;;;3.04;40.91
48624;BME280;34422;45.802;16.114;2023-02-05T11:43:52;102072.50;;;2.84;41.01
48624;BME280;34422;45.802;16.114;2023-02-05T11:46:23;102069.31;;;2.79;41.27
48624;BME280;34422;45.802;16.114;2023-02-05T11:48:59;102079.34;;;3.21;41.18
48624;BME280;34422;45.802;16.114;2023-02-05T11:51:42;102073.53;;;3.28;40.44
48624;BME280;34422;45.802;16.114;2023-02-05T12:00:01;102059.34;;;3.81;40.18
48624;BME280;34422;45.802;16.114;2023-02-05T12:02:45;102060.09;;;3.72;39.97
48624;BME280;34422;45.802;16.114;2023-02-05T12:05:25;102061.44;;;3.67;40.00
48624;BME280;34422;45.802;16.114;2023-02-05T12:11:35;102035.25;;;3.81;40.38
48624;BME280;34422;45.802;16.114;2023-02-05T12:16:57;102029.50;;;3.86;40.87
48624;BME280;34422;45.802;16.114;2023-02-05T12:19:51;102032.13;;;3.65;40.58
48624;BME280;34422;45.802;16.114;2023-02-05T12:30:38;102024.06;;;3.76;40.63
48624;BME280;34422;45.802;16.114;2023-02-05T12:33:35;102030.19;;;3.45;40.64
48624;BME280;34422;45.802;16.114;2023-02-05T12:36:36;102030.94;;;3.36;41.09
48624;BME280;34422;45.802;16.114;2023-02-05T12:42:42;102012.47;;;3.33;41.33
48624;BME280;34422;45.802;16.114;2023-02-05T12:54:04;102011.84;;;3.18;42.25
48624;BME280;34422;45.802;16.114;2023-02-05T12:56:47;102007.13;;;3.21;41.81
48624;BME280;34422;45.802;16.114;2023-02-05T13:01:54;102018.25;;;3.60;41.17
48624;BME280;34422;45.802;16.114;2023-02-05T13:05:18;102020.69;;;3.63;40.99
48624;BME280;34422;45.802;16.114;2023-02-05T13:07:54;102016.88;;;3.77;41.32
48624;BME280;34422;45.802;16.114;2023-02-05T13:10:33;102017.06;;;3.96;41.04
48624;BME280;34422;45.802;16.114;2023-02-05T13:13:15;102007.91;;;4.10;40.33
48624;BME280;34422;45.802;16.114;2023-02-05T13:15:44;102015.03;;;3.88;40.04
48624;BME280;34422;45.802;16.114;2023-02-05T13:20:49;102009.19;;;3.83;40.72
48624;BME280;34422;45.802;16.114;2023-02-05T13:23:38;102009.47;;;3.80;40.74
48624;BME280;34422;45.802;16.114;2023-02-05T13:26:31;102011.06;;;3.61;40.77
48624;BME280;34422;45.802;16.114;2023-02-05T13:29:20;102008.31;;;3.51;41.23
48624;BME280;34422;45.802;16.114;2023-02-05T13:31:53;102011.69;;;3.42;41.18
48624;BME280;34422;45.802;16.114;2023-02-05T13:34:22;102011.50;;;3.22;41.44
48624;BME280;34422;45.802;16.114;2023-02-05T13:37:59;102001.16;;;3.18;42.04
48624;BME280;34422;45.802;16.114;2023-02-05T13:48:54;101981.94;;;3.35;41.05
48624;BME280;34422;45.802;16.114;2023-02-05T13:59:35;102005.19;;;3.24;41.49
48624;BME280;34422;45.802;16.114;2023-02-05T14:02:33;102011.00;;;3.40;41.47
48624;BME280;34422;45.802;16.114;2023-02-05T14:05:05;102011.25;;;3.37;41.62
48624;BME280;34422;45.802;16.114;2023-02-05T14:07:45;102010.75;;;3.20;41.58
48624;BME280;34422;45.802;16.114;2023-02-05T14:10:25;102015.16;;;3.21;41.91
48624;BME280;34422;45.802;16.114;2023-02-05T14:13:23;102008.06;;;3.43;41.94
48624;BME280;34422;45.802;16.114;2023-02-05T14:15:51;102006.50;;;3.29;41.76
48624;BME280;34422;45.802;16.114;2023-02-05T14:26:59;101998.59;;;3.16;41.86
48624;BME280;34422;45.802;16.114;2023-02-05T14:29:41;101986.69;;;3.09;42.36
48624;BME280;34422;45.802;16.114;2023-02-05T14:37:38;101995.47;;;3.11;42.90
48624;BME280;34422;45.802;16.114;2023-02-05T14:42:52;101988.50;;;3.20;42.98
48624;BME280;34422;45.802;16.114;2023-02-05T14:45:20;101986.47;;;3.12;42.94
48624;BME280;34422;45.802;16.114;2023-02-05T14:47:49;101982.31;;;3.08;43.19
48624;BME280;34422;45.802;16.114;2023-02-05T14:50:26;101979.41;;;2.89;43.04
48624;BME280;34422;45.802;16.114;2023-02-05T14:52:59;101993.03;;;2.86;43.06
48624;BME280;34422;45.802;16.114;2023-02-05T14:55:29;101996.91;;;2.93;43.54
48624;BME280;34422;45.802;16.114;2023-02-05T14:58:03;101994.69;;;2.76;43.21
48624;BME280;34422;45.802;16.114;2023-02-05T15:00:34;101988.50;;;2.75;43.28
48624;BME280;34422;45.802;16.114;2023-02-05T15:08:14;101985.47;;;2.58;43.62
48624;BME280;34422;45.802;16.114;2023-02-05T15:13:38;101990.31;;;2.64;44.71
48624;BME280;34422;45.802;16.114;2023-02-05T15:21:13;102000.34;;;2.38;44.57
48624;BME280;34422;45.802;16.114;2023-02-05T15:23:50;101999.00;;;2.32;44.62
48624;BME280;34422;45.802;16.114;2023-02-05T15:26:35;102001.91;;;2.29;44.50
48624;BME280;34422;45.802;16.114;2023-02-05T15:29:11;102004.28;;;2.21;44.74
48624;BME280;34422;45.802;16.114;2023-02-05T15:31:44;101994.09;;;2.15;45.21
48624;BME280;34422;45.802;16.114;2023-02-05T15:34:33;102007.56;;;2.13;45.43
48624;BME280;34422;45.802;16.114;2023-02-05T15:37:22;102008.63;;;2.11;45.72